Terminal Aerodrome Forecast
Issued by NWS

Home | Current Version | Previous Version | Graphics & Text | Print | Product List | Glossary On
Versions: 1 2 3 4 5 6 7 8 9 10 11 12 13 14
000
FTUS45 KGGW 230522
TAFGDV
TAF
KGDV 230522Z 2306/2406 VRB05KT P6SM BKN130
     FM231200 26008KT P6SM SCT110
     FM240000 22007KT P6SM SCT140=

USA.gov is the U.S. government's official web portal to all federal, state and local government web resources and services.